sensor_id;sensor_type;location;lat;lon;timestamp;temperature;humidity
21495;DHT22;10909;53.590;10.054;2023-08-31T00:00:29;18.20;67.50
21495;DHT22;10909;53.590;10.054;2023-08-31T00:02:57;18.10;67.70
21495;DHT22;10909;53.590;10.054;2023-08-31T00:05:22;18.10;67.60
21495;DHT22;10909;53.590;10.054;2023-08-31T00:07:50;18.10;68.10
21495;DHT22;10909;53.590;10.054;2023-08-31T00:10:16;18.10;67.70
21495;DHT22;10909;53.590;10.054;2023-08-31T00:12:42;18.00;67.80
21495;DHT22;10909;53.590;10.054;2023-08-31T00:15:09;18.00;68.00
21495;DHT22;10909;53.590;10.054;2023-08-31T00:17:34;18.00;68.20
21495;DHT22;10909;53.590;10.054;2023-08-31T00:20:00;18.00;68.20
21495;DHT22;10909;53.590;10.054;2023-08-31T00:22:31;17.90;68.20
21495;DHT22;10909;53.590;10.054;2023-08-31T00:24:56;17.90;68.20
21495;DHT22;10909;53.590;10.054;2023-08-31T00:27:22;17.90;68.30
21495;DHT22;10909;53.590;10.054;2023-08-31T00:29:48;17.90;68.10
21495;DHT22;10909;53.590;10.054;2023-08-31T00:32:15;17.90;68.50
21495;DHT22;10909;53.590;10.054;2023-08-31T00:34:40;17.90;68.20
21495;DHT22;10909;53.590;10.054;2023-08-31T00:37:06;17.90;68.40
21495;DHT22;10909;53.590;10.054;2023-08-31T00:39:32;17.80;68.70
21495;DHT22;10909;53.590;10.054;2023-08-31T00:41:59;17.80;68.50
21495;DHT22;10909;53.590;10.054;2023-08-31T00:44:25;17.80;68.20
21495;DHT22;10909;53.590;10.054;2023-08-31T00:46:50;17.80;68.40
21495;DHT22;10909;53.590;10.054;2023-08-31T00:49:17;17.80;68.40
21495;DHT22;10909;53.590;10.054;2023-08-31T00:51:43;17.70;68.40
21495;DHT22;10909;53.590;10.054;2023-08-31T00:54:17;17.70;68.60
21495;DHT22;10909;53.590;10.054;2023-08-31T00:56:43;17.70;68.50
21495;DHT22;10909;53.590;10.054;2023-08-31T00:59:08;17.60;68.80
21495;DHT22;10909;53.590;10.054;2023-08-31T01:01:49;17.60;68.50
21495;DHT22;10909;53.590;10.054;2023-08-31T01:07:01;17.50;69.10
21495;DHT22;10909;53.590;10.054;2023-08-31T01:09:39;17.50;69.70
21495;DHT22;10909;53.590;10.054;2023-08-31T01:12:12;17.50;70.00
21495;DHT22;10909;53.590;10.054;2023-08-31T01:14:50;17.40;69.10
21495;DHT22;10909;53.590;10.054;2023-08-31T01:17:20;17.40;69.40
21495;DHT22;10909;53.590;10.054;2023-08-31T01:19:55;17.40;69.30
21495;DHT22;10909;53.590;10.054;2023-08-31T01:22:30;17.30;69.50
21495;DHT22;10909;53.590;10.054;2023-08-31T01:24:58;17.30;69.50
21495;DHT22;10909;53.590;10.054;2023-08-31T01:27:32;17.30;69.40
21495;DHT22;10909;53.590;10.054;2023-08-31T01:29:58;17.20;69.40
21495;DHT22;10909;53.590;10.054;2023-08-31T01:32:24;17.20;69.40
21495;DHT22;10909;53.590;10.054;2023-08-31T01:34:53;17.10;69.10
21495;DHT22;10909;53.590;10.054;2023-08-31T01:39:58;17.10;69.60
21495;DHT22;10909;53.590;10.054;2023-08-31T01:42:29;17.10;69.10
21495;DHT22;10909;53.590;10.054;2023-08-31T01:44:57;17.10;69.10
21495;DHT22;10909;53.590;10.054;2023-08-31T01:47:25;17.10;69.40
21495;DHT22;10909;53.590;10.054;2023-08-31T01:49:51;17.10;69.40
21495;DHT22;10909;53.590;10.054;2023-08-31T01:52:17;17.00;69.20
21495;DHT22;10909;53.590;10.054;2023-08-31T01:54:43;17.00;69.80
21495;DHT22;10909;53.590;10.054;2023-08-31T01:57:09;17.00;69.60
21495;DHT22;10909;53.590;10.054;2023-08-31T01:59:34;17.00;69.80
21495;DHT22;10909;53.590;10.054;2023-08-31T02:02:01;17.00;69.70
21495;DHT22;10909;53.590;10.054;2023-08-31T02:04:27;16.90;69.50
21495;DHT22;10909;53.590;10.054;2023-08-31T02:06:53;17.00;69.60
21495;DHT22;10909;53.590;10.054;2023-08-31T02:09:19;16.90;69.60
21495;DHT22;10909;53.590;10.054;2023-08-31T02:11:45;16.90;69.50
21495;DHT22;10909;53.590;10.054;2023-08-31T02:14:10;16.80;69.70
21495;DHT22;10909;53.590;10.054;2023-08-31T02:16:36;16.80;70.20
21495;DHT22;10909;53.590;10.054;2023-08-31T02:19:02;16.80;70.00
21495;DHT22;10909;53.590;10.054;2023-08-31T02:21:28;16.80;70.40
21495;DHT22;10909;53.590;10.054;2023-08-31T02:23:53;16.70;70.60
21495;DHT22;10909;53.590;10.054;2023-08-31T02:26:20;16.70;70.60
21495;DHT22;10909;53.590;10.054;2023-08-31T02:28:46;16.60;70.60
21495;DHT22;10909;53.590;10.054;2023-08-31T02:31:13;16.60;70.50
21495;DHT22;10909;53.590;10.054;2023-08-31T02:33:40;16.60;70.80
21495;DHT22;10909;53.590;10.054;2023-08-31T02:36:05;16.50;70.90
21495;DHT22;10909;53.590;10.054;2023-08-31T02:38:31;16.50;71.00
21495;DHT22;10909;53.590;10.054;2023-08-31T02:40:57;16.50;71.00
21495;DHT22;10909;53.590;10.054;2023-08-31T02:43:23;16.50;70.80
21495;DHT22;10909;53.590;10.054;2023-08-31T02:45:49;16.40;71.00
21495;DHT22;10909;53.590;10.054;2023-08-31T02:48:14;16.40;71.10
21495;DHT22;10909;53.590;10.054;2023-08-31T02:50:40;16.40;71.30
21495;DHT22;10909;53.590;10.054;2023-08-31T02:53:06;16.30;71.00
21495;DHT22;10909;53.590;10.054;2023-08-31T02:55:34;16.30;71.30
21495;DHT22;10909;53.590;10.054;2023-08-31T02:58:01;16.30;71.20
21495;DHT22;10909;53.590;10.054;2023-08-31T03:00:27;16.30;71.30
21495;DHT22;10909;53.590;10.054;2023-08-31T03:02:53;16.30;71.20
21495;DHT22;10909;53.590;10.054;2023-08-31T03:05:19;16.30;71.60
21495;DHT22;10909;53.590;10.054;2023-08-31T03:07:46;16.20;71.30
21495;DHT22;10909;53.590;10.054;2023-08-31T03:10:13;16.20;71.50
21495;DHT22;10909;53.590;10.054;2023-08-31T03:12:38;16.20;71.50
21495;DHT22;10909;53.590;10.054;2023-08-31T03:15:06;16.10;72.00
21495;DHT22;10909;53.590;10.054;2023-08-31T03:17:32;16.10;72.20
21495;DHT22;10909;53.590;10.054;2023-08-31T03:19:58;16.10;72.20
21495;DHT22;10909;53.590;10.054;2023-08-31T03:22:24;16.10;71.90
21495;DHT22;10909;53.590;10.054;2023-08-31T03:24:49;16.00;71.90
21495;DHT22;10909;53.590;10.054;2023-08-31T03:27:15;16.00;72.30
21495;DHT22;10909;53.590;10.054;2023-08-31T03:29:44;16.00;72.00
21495;DHT22;10909;53.590;10.054;2023-08-31T03:32:10;16.00;72.00
21495;DHT22;10909;53.590;10.054;2023-08-31T03:34:36;16.00;71.90
21495;DHT22;10909;53.590;10.054;2023-08-31T03:37:01;15.90;71.90
21495;DHT22;10909;53.590;10.054;2023-08-31T03:39:27;15.90;72.00
21495;DHT22;10909;53.590;10.054;2023-08-31T03:41:53;15.90;71.90
21495;DHT22;10909;53.590;10.054;2023-08-31T03:44:20;15.90;71.80
21495;DHT22;10909;53.590;10.054;2023-08-31T03:46:45;15.90;71.90
21495;DHT22;10909;53.590;10.054;2023-08-31T03:49:11;15.80;71.90
21495;DHT22;10909;53.590;10.054;2023-08-31T03:51:36;15.80;71.70
21495;DHT22;10909;53.590;10.054;2023-08-31T03:54:02;15.80;71.80
21495;DHT22;10909;53.590;10.054;2023-08-31T03:56:28;15.80;72.00
21495;DHT22;10909;53.590;10.054;2023-08-31T03:58:53;15.80;72.00
21495;DHT22;10909;53.590;10.054;2023-08-31T04:01:19;15.80;71.70
21495;DHT22;10909;53.590;10.054;2023-08-31T04:03:45;15.80;71.80
21495;DHT22;10909;53.590;10.054;2023-08-31T04:06:10;15.80;71.70
21495;DHT22;10909;53.590;10.054;2023-08-31T04:08:36;15.70;71.80
21495;DHT22;10909;53.590;10.054;2023-08-31T04:11:04;15.70;71.70
21495;DHT22;10909;53.590;10.054;2023-08-31T04:13:30;15.70;72.20
21495;DHT22;10909;53.590;10.054;2023-08-31T04:15:56;15.70;72.00
21495;DHT22;10909;53.590;10.054;2023-08-31T04:18:21;15.70;71.80
21495;DHT22;10909;53.590;10.054;2023-08-31T04:20:49;15.60;72.00
21495;DHT22;10909;53.590;10.054;2023-08-31T04:23:16;15.70;71.90
21495;DHT22;10909;53.590;10.054;2023-08-31T04:25:42;15.70;71.80
21495;DHT22;10909;53.590;10.054;2023-08-31T04:28:08;15.70;71.70
21495;DHT22;10909;53.590;10.054;2023-08-31T04:30:33;15.70;71.80
21495;DHT22;10909;53.590;10.054;2023-08-31T04:32:59;15.60;71.50
21495;DHT22;10909;53.590;10.054;2023-08-31T04:35:25;15.60;71.50
21495;DHT22;10909;53.590;10.054;2023-08-31T04:37:50;15.60;71.60
21495;DHT22;10909;53.590;10.054;2023-08-31T04:40:16;15.60;71.60
21495;DHT22;10909;53.590;10.054;2023-08-31T04:42:42;15.60;72.00
21495;DHT22;10909;53.590;10.054;2023-08-31T04:45:08;15.60;71.90
21495;DHT22;10909;53.590;10.054;2023-08-31T04:47:35;15.60;72.00
21495;DHT22;10909;53.590;10.054;2023-08-31T04:50:02;15.50;72.10
21495;DHT22;10909;53.590;10.054;2023-08-31T04:52:28;15.50;72.20
21495;DHT22;10909;53.590;10.054;2023-08-31T04:54:54;15.50;72.10
21495;DHT22;10909;53.590;10.054;2023-08-31T04:57:20;15.50;72.10
21495;DHT22;10909;53.590;10.054;2023-08-31T04:59:46;15.50;72.30
21495;DHT22;10909;53.590;10.054;2023-08-31T05:02:11;15.50;72.50
21495;DHT22;10909;53.590;10.054;2023-08-31T05:04:37;15.50;72.10
21495;DHT22;10909;53.590;10.054;2023-08-31T05:07:05;15.40;72.20
21495;DHT22;10909;53.590;10.054;2023-08-31T05:09:31;15.50;72.20
21495;DHT22;10909;53.590;10.054;2023-08-31T05:12:03;15.50;72.10
21495;DHT22;10909;53.590;10.054;2023-08-31T05:14:32;15.50;72.30
21495;DHT22;10909;53.590;10.054;2023-08-31T05:17:09;15.50;72.10
21495;DHT22;10909;53.590;10.054;2023-08-31T05:19:35;15.50;72.30
21495;DHT22;10909;53.590;10.054;2023-08-31T05:22:01;15.50;71.60
21495;DHT22;10909;53.590;10.054;2023-08-31T05:24:27;15.50;72.10
21495;DHT22;10909;53.590;10.054;2023-08-31T05:26:53;15.50;72.00
21495;DHT22;10909;53.590;10.054;2023-08-31T05:29:18;15.50;72.00
21495;DHT22;10909;53.590;10.054;2023-08-31T05:31:44;15.60;72.20
21495;DHT22;10909;53.590;10.054;2023-08-31T05:34:10;15.60;72.20
21495;DHT22;10909;53.590;10.054;2023-08-31T05:36:36;15.60;72.10
21495;DHT22;10909;53.590;10.054;2023-08-31T05:39:02;15.60;72.00
21495;DHT22;10909;53.590;10.054;2023-08-31T05:41:28;15.60;72.00
21495;DHT22;10909;53.590;10.054;2023-08-31T05:43:54;15.60;72.10
21495;DHT22;10909;53.590;10.054;2023-08-31T05:46:19;15.70;72.10
21495;DHT22;10909;53.590;10.054;2023-08-31T05:48:45;15.70;72.30
21495;DHT22;10909;53.590;10.054;2023-08-31T05:51:10;15.70;72.00
21495;DHT22;10909;53.590;10.054;2023-08-31T05:53:36;15.70;72.30
21495;DHT22;10909;53.590;10.054;2023-08-31T05:56:03;15.70;72.00
21495;DHT22;10909;53.590;10.054;2023-08-31T05:58:33;15.70;72.10
21495;DHT22;10909;53.590;10.054;2023-08-31T06:00:59;15.80;72.10
21495;DHT22;10909;53.590;10.054;2023-08-31T06:03:25;15.80;72.00
21495;DHT22;10909;53.590;10.054;2023-08-31T06:05:51;15.80;72.00
21495;DHT22;10909;53.590;10.054;2023-08-31T06:08:16;15.80;72.20
21495;DHT22;10909;53.590;10.054;2023-08-31T06:10:42;15.80;72.00
21495;DHT22;10909;53.590;10.054;2023-08-31T06:13:07;15.80;71.90
21495;DHT22;10909;53.590;10.054;2023-08-31T06:15:33;15.90;71.90
21495;DHT22;10909;53.590;10.054;2023-08-31T06:17:59;15.90;71.90
21495;DHT22;10909;53.590;10.054;2023-08-31T06:20:24;15.90;71.90
21495;DHT22;10909;53.590;10.054;2023-08-31T06:22:50;15.90;71.80
21495;DHT22;10909;53.590;10.054;2023-08-31T06:25:16;16.00;71.80
21495;DHT22;10909;53.590;10.054;2023-08-31T06:27:44;16.00;71.70
21495;DHT22;10909;53.590;10.054;2023-08-31T06:30:10;16.00;71.60
21495;DHT22;10909;53.590;10.054;2023-08-31T06:32:42;16.00;71.60
21495;DHT22;10909;53.590;10.054;2023-08-31T06:35:08;16.10;71.40
21495;DHT22;10909;53.590;10.054;2023-08-31T06:37:34;16.10;71.30
21495;DHT22;10909;53.590;10.054;2023-08-31T06:39:59;16.20;71.30
21495;DHT22;10909;53.590;10.054;2023-08-31T06:42:25;16.20;71.30
21495;DHT22;10909;53.590;10.054;2023-08-31T06:44:50;16.20;71.10
21495;DHT22;10909;53.590;10.054;2023-08-31T06:47:16;16.30;71.00
21495;DHT22;10909;53.590;10.054;2023-08-31T06:49:43;16.30;70.80
21495;DHT22;10909;53.590;10.054;2023-08-31T06:52:08;16.40;70.70
21495;DHT22;10909;53.590;10.054;2023-08-31T06:54:34;16.40;70.50
21495;DHT22;10909;53.590;10.054;2023-08-31T06:57:00;16.40;70.30
21495;DHT22;10909;53.590;10.054;2023-08-31T06:59:28;16.50;70.30
21495;DHT22;10909;53.590;10.054;2023-08-31T07:01:54;16.50;70.10
21495;DHT22;10909;53.590;10.054;2023-08-31T07:04:19;16.50;70.00
21495;DHT22;10909;53.590;10.054;2023-08-31T07:06:46;16.50;69.80
21495;DHT22;10909;53.590;10.054;2023-08-31T07:09:12;16.50;69.70
21495;DHT22;10909;53.590;10.054;2023-08-31T07:11:38;16.50;69.70
21495;DHT22;10909;53.590;10.054;2023-08-31T07:14:03;16.50;69.70
21495;DHT22;10909;53.590;10.054;2023-08-31T07:16:30;16.60;69.80
21495;DHT22;10909;53.590;10.054;2023-08-31T07:18:55;16.60;69.90
21495;DHT22;10909;53.590;10.054;2023-08-31T07:21:21;16.60;69.90
21495;DHT22;10909;53.590;10.054;2023-08-31T07:23:47;16.70;69.80
21495;DHT22;10909;53.590;10.054;2023-08-31T07:26:13;16.70;69.40
21495;DHT22;10909;53.590;10.054;2023-08-31T07:28:41;16.80;69.20
21495;DHT22;10909;53.590;10.054;2023-08-31T07:31:07;16.80;69.20
21495;DHT22;10909;53.590;10.054;2023-08-31T07:33:34;16.90;68.90
21495;DHT22;10909;53.590;10.054;2023-08-31T07:36:03;16.90;69.80
21495;DHT22;10909;53.590;10.054;2023-08-31T07:38:30;17.00;69.00
21495;DHT22;10909;53.590;10.054;2023-08-31T07:40:56;17.00;68.90
21495;DHT22;10909;53.590;10.054;2023-08-31T07:43:22;17.10;68.80
21495;DHT22;10909;53.590;10.054;2023-08-31T07:45:48;17.10;68.50
21495;DHT22;10909;53.590;10.054;2023-08-31T07:48:15;17.20;68.50
21495;DHT22;10909;53.590;10.054;2023-08-31T07:50:41;17.20;68.40
21495;DHT22;10909;53.590;10.054;2023-08-31T07:53:07;17.30;68.60
21495;DHT22;10909;53.590;10.054;2023-08-31T07:55:33;17.40;68.60
21495;DHT22;10909;53.590;10.054;2023-08-31T07:58:00;17.40;68.50
21495;DHT22;10909;53.590;10.054;2023-08-31T08:00:27;17.50;68.40
21495;DHT22;10909;53.590;10.054;2023-08-31T08:02:52;17.50;68.00
21495;DHT22;10909;53.590;10.054;2023-08-31T08:05:18;17.60;67.70
21495;DHT22;10909;53.590;10.054;2023-08-31T08:07:44;17.70;67.50
21495;DHT22;10909;53.590;10.054;2023-08-31T08:10:11;17.70;67.40
21495;DHT22;10909;53.590;10.054;2023-08-31T08:12:40;17.80;67.20
21495;DHT22;10909;53.590;10.054;2023-08-31T08:15:09;17.80;66.90
21495;DHT22;10909;53.590;10.054;2023-08-31T08:17:35;17.80;66.90
21495;DHT22;10909;53.590;10.054;2023-08-31T08:20:01;17.90;66.70
21495;DHT22;10909;53.590;10.054;2023-08-31T08:22:27;17.90;66.20
21495;DHT22;10909;53.590;10.054;2023-08-31T08:24:53;17.90;66.20
21495;DHT22;10909;53.590;10.054;2023-08-31T08:27:18;17.90;66.50
21495;DHT22;10909;53.590;10.054;2023-08-31T08:29:46;18.00;66.70
21495;DHT22;10909;53.590;10.054;2023-08-31T08:32:12;18.00;66.60
21495;DHT22;10909;53.590;10.054;2023-08-31T08:34:39;18.00;66.50
21495;DHT22;10909;53.590;10.054;2023-08-31T08:37:05;18.20;66.40
21495;DHT22;10909;53.590;10.054;2023-08-31T08:39:31;18.20;65.90
21495;DHT22;10909;53.590;10.054;2023-08-31T08:41:58;18.20;65.50
21495;DHT22;10909;53.590;10.054;2023-08-31T08:44:32;18.30;65.70
21495;DHT22;10909;53.590;10.054;2023-08-31T08:46:58;18.30;65.70
21495;DHT22;10909;53.590;10.054;2023-08-31T08:49:33;18.30;65.50
21495;DHT22;10909;53.590;10.054;2023-08-31T08:52:01;18.40;65.30
21495;DHT22;10909;53.590;10.054;2023-08-31T08:54:28;18.40;65.10
21495;DHT22;10909;53.590;10.054;2023-08-31T08:56:53;18.50;64.50
21495;DHT22;10909;53.590;10.054;2023-08-31T08:59:19;18.50;64.80
21495;DHT22;10909;53.590;10.054;2023-08-31T09:01:45;18.50;64.80
21495;DHT22;10909;53.590;10.054;2023-08-31T09:04:11;18.50;64.70
21495;DHT22;10909;53.590;10.054;2023-08-31T09:06:38;18.60;64.80
21495;DHT22;10909;53.590;10.054;2023-08-31T09:09:04;18.70;64.80
21495;DHT22;10909;53.590;10.054;2023-08-31T09:11:29;18.70;64.60
21495;DHT22;10909;53.590;10.054;2023-08-31T09:13:57;18.70;64.20
21495;DHT22;10909;53.590;10.054;2023-08-31T09:16:28;18.80;64.10
21495;DHT22;10909;53.590;10.054;2023-08-31T09:18:55;18.80;63.70
21495;DHT22;10909;53.590;10.054;2023-08-31T09:21:21;18.70;63.70
21495;DHT22;10909;53.590;10.054;2023-08-31T09:24:06;18.70;63.70
21495;DHT22;10909;53.590;10.054;2023-08-31T09:26:39;18.70;63.80
21495;DHT22;10909;53.590;10.054;2023-08-31T09:29:06;18.70;64.00
21495;DHT22;10909;53.590;10.054;2023-08-31T09:31:32;18.70;64.10
21495;DHT22;10909;53.590;10.054;2023-08-31T09:33:58;18.70;64.10
21495;DHT22;10909;53.590;10.054;2023-08-31T09:36:23;18.80;64.20
21495;DHT22;10909;53.590;10.054;2023-08-31T09:38:49;18.90;64.30
21495;DHT22;10909;53.590;10.054;2023-08-31T09:41:15;19.00;64.40
21495;DHT22;10909;53.590;10.054;2023-08-31T09:43:41;19.10;64.10
21495;DHT22;10909;53.590;10.054;2023-08-31T09:46:08;19.20;63.80
21495;DHT22;10909;53.590;10.054;2023-08-31T09:48:35;19.20;63.60
21495;DHT22;10909;53.590;10.054;2023-08-31T09:51:04;19.30;63.50
21495;DHT22;10909;53.590;10.054;2023-08-31T10:17:07;19.40;61.40
21495;DHT22;10909;53.590;10.054;2023-08-31T10:19:34;19.40;61.60
21495;DHT22;10909;53.590;10.054;2023-08-31T10:22:02;19.50;62.60
21495;DHT22;10909;53.590;10.054;2023-08-31T10:25:00;19.50;61.40
21495;DHT22;10909;53.590;10.054;2023-08-31T10:27:42;19.60;60.80
21495;DHT22;10909;53.590;10.054;2023-08-31T10:30:14;19.60;60.70
21495;DHT22;10909;53.590;10.054;2023-08-31T10:35:47;19.70;60.70
21495;DHT22;10909;53.590;10.054;2023-08-31T10:38:29;19.80;60.40
21495;DHT22;10909;53.590;10.054;2023-08-31T10:43:51;19.90;60.30
21495;DHT22;10909;53.590;10.054;2023-08-31T10:46:32;20.10;60.80
21495;DHT22;10909;53.590;10.054;2023-08-31T10:49:15;20.20;60.60
21495;DHT22;10909;53.590;10.054;2023-08-31T10:51:46;20.30;59.70
21495;DHT22;10909;53.590;10.054;2023-08-31T10:59:24;20.50;58.70
21495;DHT22;10909;53.590;10.054;2023-08-31T11:01:56;20.50;58.70
21495;DHT22;10909;53.590;10.054;2023-08-31T11:04:26;20.50;59.20
21495;DHT22;10909;53.590;10.054;2023-08-31T11:07:14;20.60;59.20
21495;DHT22;10909;53.590;10.054;2023-08-31T11:09:41;20.70;57.20
21495;DHT22;10909;53.590;10.054;2023-08-31T11:12:07;20.70;58.10
21495;DHT22;10909;53.590;10.054;2023-08-31T11:14:36;20.70;58.00
21495;DHT22;10909;53.590;10.054;2023-08-31T11:17:02;20.70;58.00
21495;DHT22;10909;53.590;10.054;2023-08-31T11:19:34;20.70;57.90
21495;DHT22;10909;53.590;10.054;2023-08-31T11:22:03;20.70;58.50
21495;DHT22;10909;53.590;10.054;2023-08-31T11:24:34;20.70;57.80
21495;DHT22;10909;53.590;10.054;2023-08-31T11:27:02;20.60;57.20
21495;DHT22;10909;53.590;10.054;2023-08-31T11:29:30;20.70;58.00
21495;DHT22;10909;53.590;10.054;2023-08-31T11:31:58;20.70;58.00
21495;DHT22;10909;53.590;10.054;2023-08-31T11:34:27;20.80;57.40
21495;DHT22;10909;53.590;10.054;2023-08-31T11:36:53;20.90;57.30
21495;DHT22;10909;53.590;10.054;2023-08-31T11:39:19;21.00;57.40
21495;DHT22;10909;53.590;10.054;2023-08-31T11:41:45;21.10;57.10
21495;DHT22;10909;53.590;10.054;2023-08-31T11:44:14;21.10;56.70
21495;DHT22;10909;53.590;10.054;2023-08-31T11:46:45;21.10;56.40
21495;DHT22;10909;53.590;10.054;2023-08-31T11:49:16;21.10;56.60
21495;DHT22;10909;53.590;10.054;2023-08-31T11:51:43;21.10;57.00
21495;DHT22;10909;53.590;10.054;2023-08-31T11:54:10;21.20;56.40
21495;DHT22;10909;53.590;10.054;2023-08-31T11:56:43;21.20;56.70
21495;DHT22;10909;53.590;10.054;2023-08-31T11:59:10;21.20;56.40
21495;DHT22;10909;53.590;10.054;2023-08-31T12:01:40;21.20;56.20
21495;DHT22;10909;53.590;10.054;2023-08-31T12:04:29;21.30;56.60
21495;DHT22;10909;53.590;10.054;2023-08-31T12:07:02;21.30;56.30
21495;DHT22;10909;53.590;10.054;2023-08-31T12:09:32;21.40;55.30
21495;DHT22;10909;53.590;10.054;2023-08-31T12:11:58;21.40;55.30
21495;DHT22;10909;53.590;10.054;2023-08-31T12:14:25;21.50;55.00
21495;DHT22;10909;53.590;10.054;2023-08-31T12:16:59;21.50;55.50
21495;DHT22;10909;53.590;10.054;2023-08-31T12:19:27;21.50;54.20
21495;DHT22;10909;53.590;10.054;2023-08-31T12:21:54;21.50;54.20
21495;DHT22;10909;53.590;10.054;2023-08-31T12:24:21;21.50;53.80
21495;DHT22;10909;53.590;10.054;2023-08-31T12:26:49;21.50;54.20
21495;DHT22;10909;53.590;10.054;2023-08-31T12:29:17;21.40;53.80
21495;DHT22;10909;53.590;10.054;2023-08-31T12:31:48;21.40;54.20
21495;DHT22;10909;53.590;10.054;2023-08-31T12:34:15;21.50;54.70
21495;DHT22;10909;53.590;10.054;2023-08-31T12:36:41;21.60;53.70
21495;DHT22;10909;53.590;10.054;2023-08-31T12:39:07;21.60;53.60
21495;DHT22;10909;53.590;10.054;2023-08-31T12:41:35;21.60;53.20
21495;DHT22;10909;53.590;10.054;2023-08-31T12:44:04;21.50;53.60
21495;DHT22;10909;53.590;10.054;2023-08-31T12:46:30;21.60;53.50
21495;DHT22;10909;53.590;10.054;2023-08-31T12:48:56;21.50;53.20
21495;DHT22;10909;53.590;10.054;2023-08-31T12:51:22;21.30;54.30
21495;DHT22;10909;53.590;10.054;2023-08-31T12:53:48;20.80;54.70
21495;DHT22;10909;53.590;10.054;2023-08-31T12:56:14;20.20;55.60
21495;DHT22;10909;53.590;10.054;2023-08-31T12:58:51;19.60;56.70
21495;DHT22;10909;53.590;10.054;2023-08-31T13:01:17;18.90;58.00
21495;DHT22;10909;53.590;10.054;2023-08-31T13:03:43;18.40;59.00
21495;DHT22;10909;53.590;10.054;2023-08-31T13:06:17;18.00;60.00
21495;DHT22;10909;53.590;10.054;2023-08-31T13:08:45;17.70;62.00
21495;DHT22;10909;53.590;10.054;2023-08-31T13:11:12;17.50;62.40
21495;DHT22;10909;53.590;10.054;2023-08-31T13:13:54;17.40;64.40
21495;DHT22;10909;53.590;10.054;2023-08-31T13:16:21;17.40;65.10
21495;DHT22;10909;53.590;10.054;2023-08-31T13:18:51;17.50;65.50
21495;DHT22;10909;53.590;10.054;2023-08-31T13:21:17;17.60;65.80
21495;DHT22;10909;53.590;10.054;2023-08-31T13:23:43;17.60;66.30
21495;DHT22;10909;53.590;10.054;2023-08-31T13:26:09;17.70;67.50
21495;DHT22;10909;53.590;10.054;2023-08-31T13:28:35;18.00;68.90
21495;DHT22;10909;53.590;10.054;2023-08-31T13:31:02;18.30;69.80
21495;DHT22;10909;53.590;10.054;2023-08-31T13:33:28;18.70;70.40
21495;DHT22;10909;53.590;10.054;2023-08-31T13:35:57;19.20;71.30
21495;DHT22;10909;53.590;10.054;2023-08-31T13:38:24;19.70;70.40
21495;DHT22;10909;53.590;10.054;2023-08-31T13:40:54;20.20;70.10
21495;DHT22;10909;53.590;10.054;2023-08-31T13:43:21;20.80;70.40
21495;DHT22;10909;53.590;10.054;2023-08-31T13:45:48;21.30;70.90
21495;DHT22;10909;53.590;10.054;2023-08-31T13:48:13;21.90;69.70
21495;DHT22;10909;53.590;10.054;2023-08-31T13:50:39;22.40;66.50
21495;DHT22;10909;53.590;10.054;2023-08-31T13:53:04;22.80;64.80
21495;DHT22;10909;53.590;10.054;2023-08-31T13:55:30;23.10;64.00
21495;DHT22;10909;53.590;10.054;2023-08-31T13:58:04;23.40;62.90
21495;DHT22;10909;53.590;10.054;2023-08-31T14:00:31;23.80;61.50
21495;DHT22;10909;53.590;10.054;2023-08-31T14:03:05;24.10;60.10
21495;DHT22;10909;53.590;10.054;2023-08-31T14:05:34;24.30;59.40
21495;DHT22;10909;53.590;10.054;2023-08-31T14:08:05;24.60;58.70
21495;DHT22;10909;53.590;10.054;2023-08-31T14:10:31;24.80;58.20
21495;DHT22;10909;53.590;10.054;2023-08-31T14:12:58;25.00;56.80
21495;DHT22;10909;53.590;10.054;2023-08-31T14:15:24;25.20;55.90
21495;DHT22;10909;53.590;10.054;2023-08-31T14:17:50;25.20;54.50
21495;DHT22;10909;53.590;10.054;2023-08-31T14:20:18;25.20;53.30
21495;DHT22;10909;53.590;10.054;2023-08-31T14:22:44;25.00;52.40
21495;DHT22;10909;53.590;10.054;2023-08-31T14:25:14;24.70;52.30
21495;DHT22;10909;53.590;10.054;2023-08-31T14:27:41;24.40;51.60
21495;DHT22;10909;53.590;10.054;2023-08-31T14:30:07;24.00;52.10
21495;DHT22;10909;53.590;10.054;2023-08-31T14:32:33;23.60;52.30
21495;DHT22;10909;53.590;10.054;2023-08-31T14:34:59;23.20;52.80
21495;DHT22;10909;53.590;10.054;2023-08-31T14:37:24;22.80;53.60
21495;DHT22;10909;53.590;10.054;2023-08-31T14:39:50;22.60;54.60
21495;DHT22;10909;53.590;10.054;2023-08-31T14:42:17;22.30;55.30
21495;DHT22;10909;53.590;10.054;2023-08-31T14:44:48;22.20;56.00
21495;DHT22;10909;53.590;10.054;2023-08-31T14:47:17;22.10;56.30
21495;DHT22;10909;53.590;10.054;2023-08-31T14:49:42;22.00;56.20
21495;DHT22;10909;53.590;10.054;2023-08-31T14:52:08;21.90;56.20
21495;DHT22;10909;53.590;10.054;2023-08-31T14:54:34;21.80;56.70
21495;DHT22;10909;53.590;10.054;2023-08-31T14:57:01;21.70;57.30
21495;DHT22;10909;53.590;10.054;2023-08-31T14:59:31;21.60;57.60
21495;DHT22;10909;53.590;10.054;2023-08-31T15:01:57;21.60;57.60
21495;DHT22;10909;53.590;10.054;2023-08-31T15:04:23;21.50;57.50
21495;DHT22;10909;53.590;10.054;2023-08-31T15:06:49;21.60;58.00
21495;DHT22;10909;53.590;10.054;2023-08-31T15:09:15;21.60;59.20
21495;DHT22;10909;53.590;10.054;2023-08-31T15:11:40;21.90;59.70
21495;DHT22;10909;53.590;10.054;2023-08-31T15:14:06;22.20;60.40
21495;DHT22;10909;53.590;10.054;2023-08-31T15:16:33;22.50;58.80
21495;DHT22;10909;53.590;10.054;2023-08-31T15:19:00;22.60;58.20
21495;DHT22;10909;53.590;10.054;2023-08-31T15:21:26;22.70;57.50
21495;DHT22;10909;53.590;10.054;2023-08-31T15:23:52;22.70;56.20
21495;DHT22;10909;53.590;10.054;2023-08-31T15:26:18;22.60;56.10
21495;DHT22;10909;53.590;10.054;2023-08-31T15:28:44;22.40;56.30
21495;DHT22;10909;53.590;10.054;2023-08-31T15:31:13;22.30;56.70
21495;DHT22;10909;53.590;10.054;2023-08-31T15:33:40;22.20;56.50
21495;DHT22;10909;53.590;10.054;2023-08-31T15:36:07;22.10;56.80
21495;DHT22;10909;53.590;10.054;2023-08-31T15:38:33;22.00;57.00
21495;DHT22;10909;53.590;10.054;2023-08-31T15:41:00;21.90;56.70
21495;DHT22;10909;53.590;10.054;2023-08-31T15:43:30;21.80;56.90
21495;DHT22;10909;53.590;10.054;2023-08-31T15:46:02;21.70;57.00
21495;DHT22;10909;53.590;10.054;2023-08-31T15:48:28;21.60;57.20
21495;DHT22;10909;53.590;10.054;2023-08-31T15:50:58;21.50;57.20
21495;DHT22;10909;53.590;10.054;2023-08-31T15:53:24;21.40;56.60
21495;DHT22;10909;53.590;10.054;2023-08-31T15:55:51;21.30;57.30